DNKN/KAN METAR and TAF weather

Enter ICAO airport designator
Station Type Date Time Source
DNKN METAR 2018/10/16 20:00 UTC NOAA

DNKN 162000Z 28004KT CAVOK 25/21 Q1015 NOSIG


Station Type Date Time Source
DNKN Decoded METAR 2018/10/16 20:00 UTC NOAA

Kano, Nigeria (DNKN) 12-03N 008-32E 481M
Oct 16, 2018 - 04:00 PM EDT / 2018.10.16 2000 UTC
Wind: from the W (280 degrees) at 5 MPH (4 KT):0
Visibility: greater than 7 mile(s):0
Temperature: 77 F (25 C)
Dew Point: 69 F (21 C)
Relative Humidity: 78%
Pressure (altimeter): 29.97 in. Hg (1015 hPa)
ob: DNKN 162000Z 28004KT CAVOK 25/21 Q1015 NOSIG
cycle: 20

Station Type Date Time Source
DNKN TAF 2018/10/16 18:22 UTC NOAA

TAF DNKN 161630Z 1618/1724 25008KT 9999 FEW014
TEMPO 1618/1623 TS FEW020CB


Example: see airport list